sensor_id;sensor_type;location;lat;lon;timestamp;pressure;altitude;pressure_sealevel;temperature;humidity
41947;BME280;27638;42.184;24.848;2022-11-04T00:01:33;100146.22;;;13.27;55.54
41947;BME280;27638;42.184;24.848;2022-11-04T00:03:59;100147.22;;;13.01;56.78
41947;BME280;27638;42.184;24.848;2022-11-04T00:06:25;100142.75;;;12.86;56.28
41947;BME280;27638;42.184;24.848;2022-11-04T00:08:55;100149.41;;;12.73;58.54
41947;BME280;27638;42.184;24.848;2022-11-04T00:11:21;100146.56;;;12.75;59.60
41947;BME280;27638;42.184;24.848;2022-11-04T00:14:16;100131.97;;;12.79;59.58
41947;BME280;27638;42.184;24.848;2022-11-04T00:16:42;100142.25;;;12.90;59.04
41947;BME280;27638;42.184;24.848;2022-11-04T00:19:26;100141.91;;;12.93;59.20
41947;BME280;27638;42.184;24.848;2022-11-04T00:21:52;100132.78;;;12.88;59.65
41947;BME280;27638;42.184;24.848;2022-11-04T00:24:36;100147.56;;;12.98;59.77
41947;BME280;27638;42.184;24.848;2022-11-04T00:27:12;100137.28;;;12.87;59.84
41947;BME280;27638;42.184;24.848;2022-11-04T00:30:08;100148.22;;;12.92;58.70
41947;BME280;27638;42.184;24.848;2022-11-04T00:32:34;100142.59;;;12.87;59.04
41947;BME280;27638;42.184;24.848;2022-11-04T00:35:19;100140.94;;;12.86;60.96
41947;BME280;27638;42.184;24.848;2022-11-04T00:37:44;100114.84;;;12.73;61.41
41947;BME280;27638;42.184;24.848;2022-11-04T00:40:12;100140.25;;;12.92;61.59
41947;BME280;27638;42.184;24.848;2022-11-04T00:42:38;100139.09;;;12.95;61.24
41947;BME280;27638;42.184;24.848;2022-11-04T00:45:05;100136.91;;;13.06;61.42
41947;BME280;27638;42.184;24.848;2022-11-04T00:47:30;100137.91;;;13.05;61.59
41947;BME280;27638;42.184;24.848;2022-11-04T00:49:56;100142.22;;;13.15;61.76
41947;BME280;27638;42.184;24.848;2022-11-04T00:52:21;100148.91;;;13.19;60.71
41947;BME280;27638;42.184;24.848;2022-11-04T00:54:47;100149.88;;;13.26;60.27
41947;BME280;27638;42.184;24.848;2022-11-04T00:57:13;100146.91;;;13.21;60.86
41947;BME280;27638;42.184;24.848;2022-11-04T00:59:38;100150.38;;;13.29;60.15
41947;BME280;27638;42.184;24.848;2022-11-04T01:02:06;100155.19;;;13.09;60.50
41947;BME280;27638;42.184;24.848;2022-11-04T01:04:31;100146.56;;;12.91;61.05
41947;BME280;27638;42.184;24.848;2022-11-04T01:06:57;100139.09;;;12.87;60.71
41947;BME280;27638;42.184;24.848;2022-11-04T01:09:22;100140.59;;;12.89;60.90
41947;BME280;27638;42.184;24.848;2022-11-04T01:11:48;100127.97;;;12.91;60.74
41947;BME280;27638;42.184;24.848;2022-11-04T01:14:13;100137.75;;;12.99;59.38
41947;BME280;27638;42.184;24.848;2022-11-04T01:16:39;100131.97;;;12.87;57.58
41947;BME280;27638;42.184;24.848;2022-11-04T01:19:05;100119.34;;;12.65;57.55
41947;BME280;27638;42.184;24.848;2022-11-04T01:21:31;100134.13;;;12.59;59.54
41947;BME280;27638;42.184;24.848;2022-11-04T01:23:56;100141.09;;;12.68;60.18
41947;BME280;27638;42.184;24.848;2022-11-04T01:26:23;100127.31;;;12.65;59.99
41947;BME280;27638;42.184;24.848;2022-11-04T01:28:51;100138.91;;;12.47;60.37
41947;BME280;27638;42.184;24.848;2022-11-04T01:31:19;100133.63;;;12.56;60.99
41947;BME280;27638;42.184;24.848;2022-11-04T01:33:49;100137.22;;;12.46;59.26
41947;BME280;27638;42.184;24.848;2022-11-04T01:36:15;100135.56;;;12.37;58.43
41947;BME280;27638;42.184;24.848;2022-11-04T01:38:41;100133.06;;;12.36;60.10
41947;BME280;27638;42.184;24.848;2022-11-04T01:41:08;100134.59;;;12.46;59.69
41947;BME280;27638;42.184;24.848;2022-11-04T01:44:03;100140.38;;;12.42;57.68
41947;BME280;27638;42.184;24.848;2022-11-04T01:49:20;100135.53;;;12.21;61.05
41947;BME280;27638;42.184;24.848;2022-11-04T01:51:44;100126.25;;;12.25;60.88
41947;BME280;27638;42.184;24.848;2022-11-04T01:54:12;100128.91;;;12.17;59.02
41947;BME280;27638;42.184;24.848;2022-11-04T01:56:38;100127.53;;;12.05;60.58
41947;BME280;27638;42.184;24.848;2022-11-04T01:59:09;100131.03;;;12.13;59.86
41947;BME280;27638;42.184;24.848;2022-11-04T02:01:35;100126.56;;;12.14;59.76
41947;BME280;27638;42.184;24.848;2022-11-04T02:04:01;100113.59;;;12.03;60.31
41947;BME280;27638;42.184;24.848;2022-11-04T02:06:49;100121.56;;;12.03;61.79
41947;BME280;27638;42.184;24.848;2022-11-04T02:09:17;100116.09;;;12.04;61.86
41947;BME280;27638;42.184;24.848;2022-11-04T02:11:43;100119.94;;;12.18;62.10
41947;BME280;27638;42.184;24.848;2022-11-04T02:14:27;100107.50;;;12.27;60.87
41947;BME280;27638;42.184;24.848;2022-11-04T02:16:59;100104.66;;;12.12;58.53
41947;BME280;27638;42.184;24.848;2022-11-04T02:27:52;100096.53;;;12.13;59.82
41947;BME280;27638;42.184;24.848;2022-11-04T02:30:26;100099.81;;;11.99;57.85
41947;BME280;27638;42.184;24.848;2022-11-04T02:35:58;100099.28;;;11.79;58.12
41947;BME280;27638;42.184;24.848;2022-11-04T02:38:30;100090.44;;;11.71;60.69
41947;BME280;27638;42.184;24.848;2022-11-04T02:41:15;100094.78;;;11.80;60.84
41947;BME280;27638;42.184;24.848;2022-11-04T02:44:12;100097.44;;;11.80;60.84
41947;BME280;27638;42.184;24.848;2022-11-04T02:47:07;100095.94;;;11.77;61.34
41947;BME280;27638;42.184;24.848;2022-11-04T02:49:37;100098.06;;;11.74;62.42
41947;BME280;27638;42.184;24.848;2022-11-04T02:52:10;100088.19;;;11.92;62.74
41947;BME280;27638;42.184;24.848;2022-11-04T02:54:44;100053.78;;;11.66;63.56
41947;BME280;27638;42.184;24.848;2022-11-04T02:57:15;100089.19;;;11.91;63.08
41947;BME280;27638;42.184;24.848;2022-11-04T03:02:54;100085.22;;;11.53;64.35
41947;BME280;27638;42.184;24.848;2022-11-04T03:05:30;100090.56;;;11.61;65.02
41947;BME280;27638;42.184;24.848;2022-11-04T03:08:03;100080.47;;;11.65;64.09
41947;BME280;27638;42.184;24.848;2022-11-04T03:10:41;100071.59;;;11.82;64.06
41947;BME280;27638;42.184;24.848;2022-11-04T03:13:13;100081.81;;;11.69;64.03
41947;BME280;27638;42.184;24.848;2022-11-04T03:15:49;100079.91;;;11.53;64.98
41947;BME280;27638;42.184;24.848;2022-11-04T03:21:18;100076.59;;;11.93;64.27
41947;BME280;27638;42.184;24.848;2022-11-04T03:23:46;100084.06;;;11.98;63.33
41947;BME280;27638;42.184;24.848;2022-11-04T03:26:19;100089.38;;;12.06;63.45
41947;BME280;27638;42.184;24.848;2022-11-04T03:31:35;100089.41;;;12.14;63.32
41947;BME280;27638;42.184;24.848;2022-11-04T03:34:03;100074.94;;;11.92;63.15
41947;BME280;27638;42.184;24.848;2022-11-04T03:36:29;100088.69;;;11.96;63.55
41947;BME280;27638;42.184;24.848;2022-11-04T03:38:54;100089.56;;;12.04;62.82
41947;BME280;27638;42.184;24.848;2022-11-04T03:41:55;100090.84;;;11.92;62.86
41947;BME280;27638;42.184;24.848;2022-11-04T03:44:22;100098.38;;;11.71;63.96
41947;BME280;27638;42.184;24.848;2022-11-04T03:46:50;100104.94;;;11.85;63.68
41947;BME280;27638;42.184;24.848;2022-11-04T03:49:17;100095.31;;;11.83;63.69
41947;BME280;27638;42.184;24.848;2022-11-04T03:51:43;100097.84;;;11.59;64.31
41947;BME280;27638;42.184;24.848;2022-11-04T03:54:09;100096.53;;;11.63;63.92
41947;BME280;27638;42.184;24.848;2022-11-04T04:02:14;100073.69;;;11.70;64.68
41947;BME280;27638;42.184;24.848;2022-11-04T04:04:55;100080.16;;;11.76;64.62
41947;BME280;27638;42.184;24.848;2022-11-04T04:07:40;100076.78;;;11.58;65.17
41947;BME280;27638;42.184;24.848;2022-11-04T04:10:17;100078.63;;;11.65;64.86
41947;BME280;27638;42.184;24.848;2022-11-04T04:13:17;100058.28;;;11.40;65.33
41947;BME280;27638;42.184;24.848;2022-11-04T04:15:49;100086.13;;;11.70;64.83
41947;BME280;27638;42.184;24.848;2022-11-04T04:18:24;100092.25;;;11.70;65.07
41947;BME280;27638;42.184;24.848;2022-11-04T04:20:51;100083.22;;;11.89;64.88
41947;BME280;27638;42.184;24.848;2022-11-04T04:23:22;100093.28;;;11.77;64.33
41947;BME280;27638;42.184;24.848;2022-11-04T04:26:08;100083.50;;;11.78;64.82
41947;BME280;27638;42.184;24.848;2022-11-04T04:28:55;100085.03;;;11.89;64.12
41947;BME280;27638;42.184;24.848;2022-11-04T04:31:24;100086.22;;;11.94;63.98
41947;BME280;27638;42.184;24.848;2022-11-04T04:34:09;100080.56;;;11.97;64.27
41947;BME280;27638;42.184;24.848;2022-11-04T04:36:42;100079.44;;;12.08;63.93
41947;BME280;27638;42.184;24.848;2022-11-04T04:39:10;100081.09;;;12.17;63.78
41947;BME280;27638;42.184;24.848;2022-11-04T04:41:55;100084.56;;;12.01;63.97
41947;BME280;27638;42.184;24.848;2022-11-04T04:44:41;100091.41;;;12.20;63.61
41947;BME280;27638;42.184;24.848;2022-11-04T04:47:38;100084.75;;;12.24;63.60
41947;BME280;27638;42.184;24.848;2022-11-04T04:50:04;100085.59;;;12.25;64.41
41947;BME280;27638;42.184;24.848;2022-11-04T04:52:33;100093.41;;;12.26;64.25
41947;BME280;27638;42.184;24.848;2022-11-04T04:55:00;100081.78;;;12.27;64.20
41947;BME280;27638;42.184;24.848;2022-11-04T04:57:26;100082.44;;;12.29;64.90
41947;BME280;27638;42.184;24.848;2022-11-04T04:59:51;100085.78;;;12.47;64.68
41947;BME280;27638;42.184;24.848;2022-11-04T05:02:17;100086.28;;;12.43;64.34
41947;BME280;27638;42.184;24.848;2022-11-04T05:04:42;100086.94;;;12.45;64.28
41947;BME280;27638;42.184;24.848;2022-11-04T05:07:07;100086.47;;;12.58;64.34
41947;BME280;27638;42.184;24.848;2022-11-04T05:09:34;100089.28;;;12.64;63.80
41947;BME280;27638;42.184;24.848;2022-11-04T05:12:00;100089.13;;;12.50;63.89
41947;BME280;27638;42.184;24.848;2022-11-04T05:14:25;100089.13;;;12.50;64.29
41947;BME280;27638;42.184;24.848;2022-11-04T05:16:50;100089.97;;;12.58;63.40
41947;BME280;27638;42.184;24.848;2022-11-04T05:19:16;100093.44;;;12.67;62.95
41947;BME280;27638;42.184;24.848;2022-11-04T05:21:41;100094.09;;;12.53;64.00
41947;BME280;27638;42.184;24.848;2022-11-04T05:24:07;100103.25;;;12.66;63.82
41947;BME280;27638;42.184;24.848;2022-11-04T05:26:32;100099.25;;;12.70;62.78
41947;BME280;27638;42.184;24.848;2022-11-04T05:28:58;100100.75;;;12.73;63.47
41947;BME280;27638;42.184;24.848;2022-11-04T05:31:23;100100.06;;;12.71;63.79
41947;BME280;27638;42.184;24.848;2022-11-04T05:33:49;100095.09;;;12.52;63.68
41947;BME280;27638;42.184;24.848;2022-11-04T05:36:15;100102.06;;;12.77;62.55
41947;BME280;27638;42.184;24.848;2022-11-04T05:38:42;100108.03;;;12.79;63.33
41947;BME280;27638;42.184;24.848;2022-11-04T05:41:09;100083.47;;;12.77;62.90
41947;BME280;27638;42.184;24.848;2022-11-04T05:43:36;100112.53;;;12.87;62.91
41947;BME280;27638;42.184;24.848;2022-11-04T05:46:01;100104.72;;;12.85;63.49
41947;BME280;27638;42.184;24.848;2022-11-04T05:48:27;100120.16;;;12.90;63.03
41947;BME280;27638;42.184;24.848;2022-11-04T05:50:53;100123.97;;;12.95;62.98
41947;BME280;27638;42.184;24.848;2022-11-04T05:53:19;100127.44;;;13.04;63.29
41947;BME280;27638;42.184;24.848;2022-11-04T05:55:44;100132.25;;;13.08;62.55
41947;BME280;27638;42.184;24.848;2022-11-04T05:58:10;100135.59;;;13.10;62.82
41947;BME280;27638;42.184;24.848;2022-11-04T06:00:36;100134.59;;;13.03;62.90
41947;BME280;27638;42.184;24.848;2022-11-04T06:03:01;100090.13;;;12.65;64.06
41947;BME280;27638;42.184;24.848;2022-11-04T06:05:27;100121.50;;;12.86;64.05
41947;BME280;27638;42.184;24.848;2022-11-04T06:07:54;100141.94;;;12.61;65.07
41947;BME280;27638;42.184;24.848;2022-11-04T06:10:20;100133.28;;;12.83;64.73
41947;BME280;27638;42.184;24.848;2022-11-04T06:12:45;100149.22;;;12.99;63.65
41947;BME280;27638;42.184;24.848;2022-11-04T06:15:10;100155.19;;;13.09;63.52
41947;BME280;27638;42.184;24.848;2022-11-04T06:17:36;100154.03;;;13.12;63.75
41947;BME280;27638;42.184;24.848;2022-11-04T06:20:03;100152.22;;;12.96;64.11
41947;BME280;27638;42.184;24.848;2022-11-04T06:22:29;100099.41;;;12.85;64.28
41947;BME280;27638;42.184;24.848;2022-11-04T06:24:54;100159.19;;;13.30;63.75
41947;BME280;27638;42.184;24.848;2022-11-04T06:27:20;100139.72;;;13.29;63.52
41947;BME280;27638;42.184;24.848;2022-11-04T06:29:45;100154.50;;;13.16;64.28
41947;BME280;27638;42.184;24.848;2022-11-04T06:32:14;100160.69;;;13.08;64.53
41947;BME280;27638;42.184;24.848;2022-11-04T06:34:40;100157.19;;;13.16;64.83
41947;BME280;27638;42.184;24.848;2022-11-04T06:37:06;100155.03;;;13.27;64.14
41947;BME280;27638;42.184;24.848;2022-11-04T06:39:31;100155.03;;;13.27;64.14
41947;BME280;27638;42.184;24.848;2022-11-04T06:41:57;100159.84;;;13.32;64.52
41947;BME280;27638;42.184;24.848;2022-11-04T06:44:23;100165.31;;;13.38;63.78
41947;BME280;27638;42.184;24.848;2022-11-04T06:46:48;100162.28;;;13.50;63.83
41947;BME280;27638;42.184;24.848;2022-11-04T06:49:16;100159.59;;;13.66;63.36
41947;BME280;27638;42.184;24.848;2022-11-04T06:51:44;100160.81;;;13.55;63.24
41947;BME280;27638;42.184;24.848;2022-11-04T06:54:10;100154.34;;;13.33;63.72
41947;BME280;27638;42.184;24.848;2022-11-04T06:56:35;100158.78;;;13.49;64.39
41947;BME280;27638;42.184;24.848;2022-11-04T06:59:01;100156.13;;;13.57;63.74
41947;BME280;27638;42.184;24.848;2022-11-04T07:01:29;100152.75;;;13.71;63.65
41947;BME280;27638;42.184;24.848;2022-11-04T07:03:57;100164.22;;;13.80;63.24
41947;BME280;27638;42.184;24.848;2022-11-04T07:06:23;100170.31;;;13.89;63.22
41947;BME280;27638;42.184;24.848;2022-11-04T07:08:51;100162.13;;;13.98;62.79
41947;BME280;27638;42.184;24.848;2022-11-04T07:11:18;100160.59;;;14.04;62.70
41947;BME280;27638;42.184;24.848;2022-11-04T07:13:45;100164.44;;;14.01;62.69
41947;BME280;27638;42.184;24.848;2022-11-04T07:16:10;100152.81;;;13.55;64.14
41947;BME280;27638;42.184;24.848;2022-11-04T07:18:36;100151.44;;;13.67;63.78
41947;BME280;27638;42.184;24.848;2022-11-04T07:21:02;100142.66;;;13.98;62.76
41947;BME280;27638;42.184;24.848;2022-11-04T07:23:28;100157.31;;;14.25;61.62
41947;BME280;27638;42.184;24.848;2022-11-04T07:26:01;100147.28;;;14.35;61.67
41947;BME280;27638;42.184;24.848;2022-11-04T07:28:27;100145.34;;;14.52;61.03
41947;BME280;27638;42.184;24.848;2022-11-04T07:30:57;100140.28;;;14.65;60.40
41947;BME280;27638;42.184;24.848;2022-11-04T07:33:24;100144.06;;;14.71;60.04
41947;BME280;27638;42.184;24.848;2022-11-04T07:39:06;100128.06;;;14.93;59.98
41947;BME280;27638;42.184;24.848;2022-11-04T07:41:32;100125.31;;;15.01;59.37
41947;BME280;27638;42.184;24.848;2022-11-04T07:43:57;100122.00;;;14.99;59.32
41947;BME280;27638;42.184;24.848;2022-11-04T07:46:25;100119.25;;;15.08;59.51
41947;BME280;27638;42.184;24.848;2022-11-04T07:48:51;100117.69;;;15.13;59.25
41947;BME280;27638;42.184;24.848;2022-11-04T07:51:19;100115.94;;;15.20;58.54
41947;BME280;27638;42.184;24.848;2022-11-04T07:53:45;100118.25;;;15.23;58.50
41947;BME280;27638;42.184;24.848;2022-11-04T07:56:12;100113.19;;;15.28;58.52
41947;BME280;27638;42.184;24.848;2022-11-04T07:58:38;100107.69;;;15.30;58.45
41947;BME280;27638;42.184;24.848;2022-11-04T08:01:07;100107.31;;;15.33;58.07
41947;BME280;27638;42.184;24.848;2022-11-04T08:03:33;100099.84;;;15.28;58.43
41947;BME280;27638;42.184;24.848;2022-11-04T08:06:02;100097.47;;;15.33;58.28
41947;BME280;27638;42.184;24.848;2022-11-04T08:08:28;100086.06;;;15.40;58.34
41947;BME280;27638;42.184;24.848;2022-11-04T08:10:55;100092.41;;;15.39;59.23
41947;BME280;27638;42.184;24.848;2022-11-04T08:13:22;100086.22;;;15.53;58.84
41947;BME280;27638;42.184;24.848;2022-11-04T08:15:47;100088.38;;;15.57;58.22
41947;BME280;27638;42.184;24.848;2022-11-04T08:18:13;100076.03;;;15.27;58.38
41947;BME280;27638;42.184;24.848;2022-11-04T08:20:38;100077.78;;;15.20;59.19
41947;BME280;27638;42.184;24.848;2022-11-04T08:23:03;100084.13;;;15.48;58.14
41947;BME280;27638;42.184;24.848;2022-11-04T08:25:29;100074.81;;;15.44;59.19
41947;BME280;27638;42.184;24.848;2022-11-04T08:27:54;100071.78;;;15.47;59.03
41947;BME280;27638;42.184;24.848;2022-11-04T08:30:20;100076.00;;;15.56;58.52
41947;BME280;27638;42.184;24.848;2022-11-04T08:32:45;100069.38;;;15.52;58.90
41947;BME280;27638;42.184;24.848;2022-11-04T08:35:11;100074.50;;;15.62;58.76
41947;BME280;27638;42.184;24.848;2022-11-04T08:37:36;100066.91;;;15.51;58.67
41947;BME280;27638;42.184;24.848;2022-11-04T08:40:03;100053.19;;;15.39;58.85
41947;BME280;27638;42.184;24.848;2022-11-04T08:42:29;100055.31;;;15.44;58.88
41947;BME280;27638;42.184;24.848;2022-11-04T08:44:55;100059.91;;;15.50;58.77
41947;BME280;27638;42.184;24.848;2022-11-04T08:47:20;100053.66;;;15.43;59.59
41947;BME280;27638;42.184;24.848;2022-11-04T08:49:45;100056.16;;;15.29;60.11
41947;BME280;27638;42.184;24.848;2022-11-04T08:52:11;100044.75;;;15.21;60.24
41947;BME280;27638;42.184;24.848;2022-11-04T08:54:36;100040.06;;;15.08;60.96
41947;BME280;27638;42.184;24.848;2022-11-04T08:57:02;100043.19;;;15.26;60.52
41947;BME280;27638;42.184;24.848;2022-11-04T08:59:27;100037.28;;;15.46;59.85
41947;BME280;27638;42.184;24.848;2022-11-04T09:01:53;100035.09;;;15.64;59.28
41947;BME280;27638;42.184;24.848;2022-11-04T09:04:19;100038.38;;;15.51;59.51
41947;BME280;27638;42.184;24.848;2022-11-04T09:06:44;100030.41;;;15.22;61.04
41947;BME280;27638;42.184;24.848;2022-11-04T09:09:13;100020.72;;;15.36;61.08
41947;BME280;27638;42.184;24.848;2022-11-04T09:11:41;100013.00;;;15.26;61.90
41947;BME280;27638;42.184;24.848;2022-11-04T09:14:09;100019.09;;;15.20;62.57
41947;BME280;27638;42.184;24.848;2022-11-04T09:16:35;100009.41;;;15.33;62.23
41947;BME280;27638;42.184;24.848;2022-11-04T09:19:01;100009.94;;;15.44;61.99
41947;BME280;27638;42.184;24.848;2022-11-04T09:21:27;99999.84;;;15.69;62.94
41947;BME280;27638;42.184;24.848;2022-11-04T09:23:53;100002.03;;;15.65;63.46
41947;BME280;27638;42.184;24.848;2022-11-04T09:26:19;100000.84;;;15.68;63.54
41947;BME280;27638;42.184;24.848;2022-11-04T09:28:46;99991.44;;;15.72;62.75
41947;BME280;27638;42.184;24.848;2022-11-04T09:31:15;99989.69;;;15.49;65.05
41947;BME280;27638;42.184;24.848;2022-11-04T09:33:41;99956.06;;;15.33;64.40
41947;BME280;27638;42.184;24.848;2022-11-04T09:36:08;99983.59;;;15.55;64.48
41947;BME280;27638;42.184;24.848;2022-11-04T09:38:38;99976.34;;;15.49;67.01
41947;BME280;27638;42.184;24.848;2022-11-04T09:43:50;99975.94;;;15.31;69.62
41947;BME280;27638;42.184;24.848;2022-11-04T09:46:18;99975.56;;;15.34;69.28
41947;BME280;27638;42.184;24.848;2022-11-04T09:48:47;99966.59;;;15.06;69.59
41947;BME280;27638;42.184;24.848;2022-11-04T09:51:17;99975.25;;;14.78;71.89
41947;BME280;27638;42.184;24.848;2022-11-04T09:53:57;99959.72;;;14.82;71.66
41947;BME280;27638;42.184;24.848;2022-11-04T09:56:28;99958.94;;;15.17;70.64
41947;BME280;27638;42.184;24.848;2022-11-04T09:58:57;99957.03;;;15.47;69.45
41947;BME280;27638;42.184;24.848;2022-11-04T10:01:50;99942.88;;;15.61;68.99
41947;BME280;27638;42.184;24.848;2022-11-04T10:07:36;99923.00;;;16.13;66.59
41947;BME280;27638;42.184;24.848;2022-11-04T10:18:25;99914.66;;;15.38;69.73
41947;BME280;27638;42.184;24.848;2022-11-04T10:23:33;99903.91;;;15.67;69.34
41947;BME280;27638;42.184;24.848;2022-11-04T10:26:16;99889.75;;;15.67;68.98
41947;BME280;27638;42.184;24.848;2022-11-04T10:28:46;99891.97;;;15.84;68.40
41947;BME280;27638;42.184;24.848;2022-11-04T10:31:16;99878.97;;;16.03;67.50
41947;BME280;27638;42.184;24.848;2022-11-04T10:33:54;99877.84;;;15.69;68.51
41947;BME280;27638;42.184;24.848;2022-11-04T10:36:21;99875.81;;;15.71;68.45
41947;BME280;27638;42.184;24.848;2022-11-04T10:38:53;99868.16;;;15.89;67.84
41947;BME280;27638;42.184;24.848;2022-11-04T10:43:48;99863.34;;;15.78;67.96
41947;BME280;27638;42.184;24.848;2022-11-04T10:51:46;99841.56;;;15.75;68.47
41947;BME280;27638;42.184;24.848;2022-11-04T10:54:11;99831.03;;;15.52;69.02
41947;BME280;27638;42.184;24.848;2022-11-04T10:56:40;99832.34;;;15.77;68.42
41947;BME280;27638;42.184;24.848;2022-11-04T10:59:21;99836.91;;;15.83;68.02
41947;BME280;27638;42.184;24.848;2022-11-04T11:01:50;99824.97;;;15.79;68.57
41947;BME280;27638;42.184;24.848;2022-11-04T11:04:30;99828.94;;;15.62;69.17
41947;BME280;27638;42.184;24.848;2022-11-04T11:06:57;99826.25;;;15.62;69.16
41947;BME280;27638;42.184;24.848;2022-11-04T11:09:26;99825.19;;;15.84;67.95
41947;BME280;27638;42.184;24.848;2022-11-04T11:12:04;99816.22;;;15.92;67.50
41947;BME280;27638;42.184;24.848;2022-11-04T11:14:35;99816.03;;;15.93;68.15
41947;BME280;27638;42.184;24.848;2022-11-04T11:20:00;99802.41;;;16.16;67.24
41947;BME280;27638;42.184;24.848;2022-11-04T11:22:41;99798.16;;;16.28;67.13
41947;BME280;27638;42.184;24.848;2022-11-04T11:28:00;99792.00;;;16.28;66.26
41947;BME280;27638;42.184;24.848;2022-11-04T11:30:30;99797.97;;;16.30;66.59
41947;BME280;27638;42.184;24.848;2022-11-04T11:33:28;99788.16;;;16.44;65.36
41947;BME280;27638;42.184;24.848;2022-11-04T11:35:57;99786.09;;;16.39;65.64
41947;BME280;27638;42.184;24.848;2022-11-04T11:38:29;99777.50;;;16.50;64.86
41947;BME280;27638;42.184;24.848;2022-11-04T11:43:34;99769.75;;;16.21;65.10
41947;BME280;27638;42.184;24.848;2022-11-04T11:46:01;99760.28;;;16.18;65.32
41947;BME280;27638;42.184;24.848;2022-11-04T11:48:28;99757.88;;;16.30;65.27
41947;BME280;27638;42.184;24.848;2022-11-04T11:50:55;99745.41;;;16.50;64.16
41947;BME280;27638;42.184;24.848;2022-11-04T11:53:25;99757.34;;;16.48;64.51
41947;BME280;27638;42.184;24.848;2022-11-04T11:56:02;99754.31;;;16.64;63.28
41947;BME280;27638;42.184;24.848;2022-11-04T11:58:41;99753.59;;;16.77;63.19
41947;BME280;27638;42.184;24.848;2022-11-04T12:01:21;99731.66;;;16.53;63.85
41947;BME280;27638;42.184;24.848;2022-11-04T12:03:51;99737.09;;;16.67;63.63
41947;BME280;27638;42.184;24.848;2022-11-04T12:09:18;99731.78;;;16.80;62.95
41947;BME280;27638;42.184;24.848;2022-11-04T12:20:02;99716.59;;;17.00;62.42
41947;BME280;27638;42.184;24.848;2022-11-04T12:22:41;99711.66;;;17.04;61.90
41947;BME280;27638;42.184;24.848;2022-11-04T12:25:31;99709.59;;;17.32;60.36
41947;BME280;27638;42.184;24.848;2022-11-04T12:42:12;99683.28;;;17.09;60.13
41947;BME280;27638;42.184;24.848;2022-11-04T12:47:35;99676.47;;;17.20;59.51
41947;BME280;27638;42.184;24.848;2022-11-04T13:01:06;99662.28;;;17.00;60.75
41947;BME280;27638;42.184;24.848;2022-11-04T13:03:54;99660.22;;;17.08;60.53
41947;BME280;27638;42.184;24.848;2022-11-04T13:06:43;99668.44;;;17.20;60.08
41947;BME280;27638;42.184;24.848;2022-11-04T13:09:18;99662.28;;;17.13;60.53
41947;BME280;27638;42.184;24.848;2022-11-04T13:14:20;99668.22;;;17.28;60.74
41947;BME280;27638;42.184;24.848;2022-11-04T13:16:56;99664.72;;;17.28;60.58
41947;BME280;27638;42.184;24.848;2022-11-04T13:19:44;99660.63;;;17.18;60.86
41947;BME280;27638;42.184;24.848;2022-11-04T13:22:16;99657.53;;;17.15;61.01
41947;BME280;27638;42.184;24.848;2022-11-04T13:24:50;99653.84;;;17.03;61.53
41947;BME280;27638;42.184;24.848;2022-11-04T13:27:23;99648.06;;;17.06;60.95
41947;BME280;27638;42.184;24.848;2022-11-04T13:30:05;99646.03;;;17.08;60.71
41947;BME280;27638;42.184;24.848;2022-11-04T13:32:40;99638.00;;;17.08;61.58
41947;BME280;27638;42.184;24.848;2022-11-04T13:37:55;99638.41;;;17.11;61.34
41947;BME280;27638;42.184;24.848;2022-11-04T13:40:25;99638.41;;;17.24;60.88
41947;BME280;27638;42.184;24.848;2022-11-04T13:45:53;99631.00;;;17.20;61.02
41947;BME280;27638;42.184;24.848;2022-11-04T13:48:21;99628.25;;;17.46;59.74
41947;BME280;27638;42.184;24.848;2022-11-04T13:53:52;99644.97;;;17.35;59.91
41947;BME280;27638;42.184;24.848;2022-11-04T13:59:21;99627.47;;;17.39;60.65
41947;BME280;27638;42.184;24.848;2022-11-04T14:01:47;99622.09;;;17.39;60.38
41947;BME280;27638;42.184;24.848;2022-11-04T14:15:01;99643.72;;;17.44;60.88
41947;BME280;27638;42.184;24.848;2022-11-04T14:25:33;99622.72;;;17.41;60.62
41947;BME280;27638;42.184;24.848;2022-11-04T14:30:45;99619.41;;;17.46;60.40
41947;BME280;27638;42.184;24.848;2022-11-04T14:33:30;99627.25;;;17.41;61.50
41947;BME280;27638;42.184;24.848;2022-11-04T14:38:38;99618.00;;;17.37;61.25
41947;BME280;27638;42.184;24.848;2022-11-04T14:41:12;99625.81;;;17.38;60.82
41947;BME280;27638;42.184;24.848;2022-11-04T14:43:41;99622.13;;;17.33;61.55
41947;BME280;27638;42.184;24.848;2022-11-04T14:46:07;99625.19;;;17.36;62.61
41947;BME280;27638;42.184;24.848;2022-11-04T14:48:41;99622.31;;;17.38;61.29
41947;BME280;27638;42.184;24.848;2022-11-04T14:51:24;99618.59;;;17.39;61.50
41947;BME280;27638;42.184;24.848;2022-11-04T14:53:54;99603.81;;;17.30;61.56
41947;BME280;27638;42.184;24.848;2022-11-04T14:56:23;99610.81;;;17.31;62.17
41947;BME280;27638;42.184;24.848;2022-11-04T15:01:25;99623.78;;;17.27;62.09
41947;BME280;27638;42.184;24.848;2022-11-04T15:03:53;99631.19;;;17.25;62.77
41947;BME280;27638;42.184;24.848;2022-11-04T15:06:27;99632.44;;;17.22;62.74
41947;BME280;27638;42.184;24.848;2022-11-04T15:08:53;99627.69;;;17.18;63.09
41947;BME280;27638;42.184;24.848;2022-11-04T15:11:23;99623.59;;;17.15;63.19
41947;BME280;27638;42.184;24.848;2022-11-04T15:16:36;99623.38;;;17.04;62.26
41947;BME280;27638;42.184;24.848;2022-11-04T15:19:02;99629.16;;;17.01;62.34
41947;BME280;27638;42.184;24.848;2022-11-04T15:21:37;99626.06;;;16.97;62.46
41947;BME280;27638;42.184;24.848;2022-11-04T15:24:03;99623.59;;;16.89;62.75
41947;BME280;27638;42.184;24.848;2022-11-04T15:26:30;99614.75;;;16.82;62.80